Time;durP1;ratioP1;P1;durP2;ratioP2;P2;SDS_P1;SDS_P2;PMS_P1;PMS_P2;Temp;Humidity;BMP_temperature;BMP_pressure;BME280_temperature;BME280_humidity;BME280_pressure;Samples;Min_cycle;Max_cycle;Signal;HPM_P1;HPM_P2
2021/08/05 00:00:25;;;;;;;7.97;7.40;;;;;;;16.02;87.07;99956.16;5042009;28;20203;-77
2021/08/05 00:02:51;;;;;;;7.30;6.70;;;;;;;16.05;86.71;99971.81;5045423;28;20229;-77
2021/08/05 00:05:18;;;;;;;7.50;6.90;;;;;;;16.04;86.48;99980.63;5045750;28;20202;-77
2021/08/05 00:07:44;;;;;;;8.67;7.87;;;;;;;16.03;88.37;99934.16;5045389;28;20251;-77
2021/08/05 00:10:12;;;;;;;8.23;7.63;;;;;;;16.07;88.97;99901.50;5046600;28;20205;-77
2021/08/05 00:12:38;;;;;;;8.53;7.83;;;;;;;16.08;88.77;99904.97;5049959;28;20667;-77
2021/08/05 00:15:06;;;;;;;7.70;7.20;;;;;;;16.14;88.38;99912.56;5055725;28;20225;-77
2021/08/05 00:17:33;;;;;;;8.50;7.90;;;;;;;16.16;87.93;99917.75;5056395;28;20241;-77
2021/08/05 00:20:00;;;;;;;8.37;7.57;;;;;;;16.17;87.17;99938.72;5055747;28;20240;-77
2021/08/05 00:22:27;;;;;;;7.50;7.10;;;;;;;16.16;86.92;99960.72;5054777;28;20248;-77
2021/08/05 00:24:53;;;;;;;8.17;7.47;;;;;;;16.01;87.42;99943.06;5055457;28;20205;-77
2021/08/05 00:27:20;;;;;;;8.73;7.87;;;;;;;16.04;87.08;99949.03;5055641;28;20212;-77
2021/08/05 00:29:46;;;;;;;7.30;6.90;;;;;;;15.92;87.68;99933.84;5054781;28;20265;-77
2021/08/05 00:32:12;;;;;;;8.03;7.43;;;;;;;15.99;87.42;99939.66;5054485;28;20237;-79
2021/08/05 00:34:40;;;;;;;7.63;7.13;;;;;;;16.01;87.52;99957.06;5055613;28;20214;-78
2021/08/05 00:37:07;;;;;;;9.90;9.07;;;;;;;15.95;87.69;99932.84;5055510;28;20210;-77
2021/08/05 00:39:33;;;;;;;9.90;9.30;;;;;;;15.66;89.03;99898.25;5055800;28;20206;-77
2021/08/05 00:42:00;;;;;;;9.87;9.07;;;;;;;15.76;90.39;99861.84;5049108;28;20233;-78
2021/08/05 00:44:26;;;;;;;9.97;9.30;;;;;;;15.82;90.42;99851.84;5057410;28;20202;-78
2021/08/05 00:46:53;;;;;;;10.57;9.87;;;;;;;15.84;90.27;99850.00;5057891;28;20201;-78
2021/08/05 00:49:19;;;;;;;13.43;12.50;;;;;;;15.89;89.21;99878.72;5057301;28;20210;-78
2021/08/05 00:51:47;;;;;;;13.43;12.43;;;;;;;15.78;87.95;99923.16;5057001;28;20667;-78
2021/08/05 00:54:14;;;;;;;13.43;12.53;;;;;;;15.74;88.24;99914.53;5056981;28;20205;-79
2021/08/05 00:56:40;;;;;;;15.13;14.03;;;;;;;15.78;88.26;99910.00;5055660;28;20233;-77
2021/08/05 00:59:07;;;;;;;15.27;14.17;;;;;;;15.77;88.37;99906.47;5055153;28;20206;-77
2021/08/05 01:01:38;;;;;;;15.10;13.83;;;;;;;15.80;88.28;99911.63;5054715;28;20598;-77
2021/08/05 01:04:06;;;;;;;15.80;14.70;;;;;;;15.88;89.75;99861.22;5054347;28;20194;-77
2021/08/05 01:06:41;;;;;;;16.80;15.60;;;;;;;15.90;89.38;99856.75;5054729;28;20211;-77
2021/08/05 01:09:19;;;;;;;15.30;14.07;;;;;;;15.82;88.14;99909.75;5054809;28;20277;-77
2021/08/05 01:11:55;;;;;;;14.23;13.13;;;;;;;15.82;88.04;99922.91;5048218;28;20204;-78
2021/08/05 01:14:24;;;;;;;12.50;11.70;;;;;;;15.86;88.77;99884.16;5054672;28;20201;-77
2021/08/05 01:16:52;;;;;;;13.90;13.00;;;;;;;15.85;88.78;99885.91;5054408;28;20234;-77
2021/08/05 01:19:29;;;;;;;15.10;14.00;;;;;;;15.80;88.34;99898.44;5054829;28;20205;-77
2021/08/05 01:22:01;;;;;;;14.00;12.90;;;;;;;15.80;87.86;99908.97;5053913;28;20237;-77
2021/08/05 01:24:34;;;;;;;14.60;13.40;;;;;;;15.68;87.37;99920.94;5054454;28;20266;-77
2021/08/05 01:27:04;;;;;;;14.03;13.03;;;;;;;15.68;87.52;99923.56;5054556;28;20193;-77
2021/08/05 01:29:35;;;;;;;13.60;12.73;;;;;;;15.62;87.48;99912.50;5054229;28;20386;-77
2021/08/05 01:32:04;;;;;;;12.17;11.37;;;;;;;15.63;87.04;99928.16;5053266;28;20230;-77
2021/08/05 01:34:32;;;;;;;12.20;11.40;;;;;;;15.64;86.96;99935.16;5054163;28;20296;-77
2021/08/05 01:36:59;;;;;;;11.73;10.93;;;;;;;15.49;87.52;99925.34;5054229;28;20226;-77
2021/08/05 01:39:28;;;;;;;16.77;15.13;;;;;;;15.34;88.80;99890.13;5056321;28;20559;-77
2021/08/05 01:41:55;;;;;;;15.57;14.53;;;;;;;15.28;89.54;99845.69;5041228;28;20306;-79
2021/08/05 01:44:23;;;;;;;16.17;14.57;;;;;;;15.35;90.42;99809.47;5056370;28;20205;-77
2021/08/05 01:46:51;;;;;;;14.67;13.57;;;;;;;15.41;90.04;99827.56;5055459;28;20201;-77
2021/08/05 01:49:18;;;;;;;16.37;15.07;;;;;;;15.37;89.94;99832.13;5054192;28;20217;-78
2021/08/05 01:51:47;;;;;;;16.87;15.57;;;;;;;15.30;90.82;99822.81;5054191;28;20547;-77
2021/08/05 01:54:13;;;;;;;22.40;20.47;;;;;;;15.20;91.32;99795.25;5053232;28;20205;-77
2021/08/05 01:56:40;;;;;;;16.50;15.20;;;;;;;15.34;91.24;99787.56;5053642;28;20230;-77
2021/08/05 01:59:07;;;;;;;17.87;16.37;;;;;;;15.32;90.95;99802.56;5053551;28;20212;-77
2021/08/05 02:01:35;;;;;;;16.60;15.13;;;;;;;15.39;90.20;99813.63;5053737;28;20342;-77
2021/08/05 02:04:16;;;;;;;16.47;15.37;;;;;;;15.42;90.02;99822.22;5053235;28;20260;-77
2021/08/05 02:06:52;;;;;;;19.30;18.00;;;;;;;15.42;90.47;99811.72;5053467;28;20639;-77
2021/08/05 02:09:25;;;;;;;20.13;18.73;;;;;;;15.24;90.98;99788.91;5053316;28;20259;-77
2021/08/05 02:11:54;;;;;;;19.27;17.87;;;;;;;15.35;91.82;99756.84;5052342;28;20283;-77
2021/08/05 02:14:22;;;;;;;19.67;17.93;;;;;;;15.38;91.25;99769.84;5053539;28;20202;-77
2021/08/05 02:16:52;;;;;;;19.03;17.63;;;;;;;15.44;90.26;99807.22;5052997;28;20251;-77
2021/08/05 02:19:19;;;;;;;19.77;18.37;;;;;;;15.49;89.85;99818.34;5053520;28;20209;-77
2021/08/05 02:21:46;;;;;;;19.17;17.67;;;;;;;15.42;90.36;99816.97;5053248;28;20613;-77
2021/08/05 02:24:14;;;;;;;18.60;17.23;;;;;;;15.33;90.55;99806.06;5052414;28;20205;-77
2021/08/05 02:26:41;;;;;;;17.53;16.33;;;;;;;15.37;90.73;99799.72;5053078;28;20258;-77
2021/08/05 02:29:08;;;;;;;18.20;17.00;;;;;;;15.37;90.73;99799.72;5053356;28;20205;-77
2021/08/05 02:31:36;;;;;;;15.83;14.73;;;;;;;15.38;90.56;99804.91;5052726;28;20209;-77
2021/08/05 02:34:05;;;;;;;16.47;15.30;;;;;;;15.42;90.32;99816.09;5052162;28;20211;-77
2021/08/05 02:36:32;;;;;;;16.63;15.20;;;;;;;15.46;89.75;99831.69;5052987;28;20295;-77
2021/08/05 02:38:59;;;;;;;20.17;18.47;;;;;;;15.46;89.82;99847.47;5052841;28;20211;-77
2021/08/05 02:41:27;;;;;;;20.40;18.77;;;;;;;15.54;89.44;99848.84;5046626;28;20224;-77
2021/08/05 02:43:54;;;;;;;18.80;17.30;;;;;;;15.54;89.03;99868.13;5051824;28;20291;-77
2021/08/05 02:46:21;;;;;;;20.83;19.23;;;;;;;15.51;88.93;99870.91;5052562;28;20690;-77
2021/08/05 02:48:49;;;;;;;21.03;19.17;;;;;;;15.04;89.90;99843.34;5053012;28;20228;-77
2021/08/05 02:51:17;;;;;;;26.80;22.47;;;;;;;14.50;92.71;99764.31;5052608;28;20675;-77
2021/08/05 02:53:44;;;;;;;25.67;23.43;;;;;;;14.35;93.95;99715.16;5051495;28;20236;-77
2021/08/05 02:56:11;;;;;;;23.27;21.33;;;;;;;14.49;94.17;99710.13;5052828;28;20232;-77
2021/08/05 02:58:38;;;;;;;24.53;22.33;;;;;;;14.60;93.39;99722.75;5052252;28;20208;-77
2021/08/05 03:01:05;;;;;;;24.13;22.00;;;;;;;14.76;93.10;99740.44;5052571;28;20216;-77
2021/08/05 03:03:32;;;;;;;23.17;20.30;;;;;;;14.91;92.55;99752.00;5052060;28;20232;-77
2021/08/05 03:05:59;;;;;;;22.53;20.80;;;;;;;15.05;92.39;99753.03;5052300;28;20209;-77
2021/08/05 03:08:27;;;;;;;22.90;21.10;;;;;;;15.07;91.61;99780.09;5052895;28;20209;-77
2021/08/05 03:10:54;;;;;;;22.57;20.57;;;;;;;15.18;91.42;99783.97;5046602;28;20248;-77
2021/08/05 03:13:20;;;;;;;21.97;20.17;;;;;;;15.17;91.03;99788.38;5051446;28;20255;-77
2021/08/05 03:15:46;;;;;;;21.83;19.93;;;;;;;15.22;90.39;99810.06;5052364;28;20233;-77
2021/08/05 03:18:13;;;;;;;21.53;19.73;;;;;;;15.24;90.15;99825.72;5052256;28;20213;-77
2021/08/05 03:20:39;;;;;;;19.83;18.43;;;;;;;15.25;89.80;99835.34;5052050;28;20620;-76
2021/08/05 03:23:06;;;;;;;19.60;18.10;;;;;;;15.24;90.30;99833.63;5051796;28;20232;-77
2021/08/05 03:25:34;;;;;;;21.20;19.40;;;;;;;15.23;91.05;99801.22;5051880;28;20212;-77
2021/08/05 03:28:00;;;;;;;21.83;20.30;;;;;;;15.32;91.34;99791.19;5052035;28;20204;-77
2021/08/05 03:30:26;;;;;;;21.30;19.57;;;;;;;15.42;91.25;99792.44;5052241;28;20255;-77
2021/08/05 03:32:53;;;;;;;24.50;22.07;;;;;;;15.42;90.69;99802.94;5051670;28;20233;-77
2021/08/05 03:35:19;;;;;;;23.30;21.07;;;;;;;15.45;90.12;99822.06;5051714;28;20862;-77
2021/08/05 03:37:46;;;;;;;24.37;22.57;;;;;;;15.43;89.91;99836.22;5052326;28;20275;-77
2021/08/05 03:40:13;;;;;;;26.87;24.53;;;;;;;15.17;90.75;99805.94;5049108;28;20256;-78
2021/08/05 03:42:40;;;;;;;29.17;26.27;;;;;;;14.97;91.68;99777.97;5048326;28;20260;-77
2021/08/05 03:45:08;;;;;;;27.73;25.20;;;;;;;14.78;92.77;99741.22;5051838;28;20205;-77
2021/08/05 03:47:34;;;;;;;29.17;26.70;;;;;;;14.72;93.61;99721.31;5051863;28;20204;-77
2021/08/05 03:50:01;;;;;;;28.00;25.77;;;;;;;14.77;93.54;99708.84;5051864;28;20208;-77
2021/08/05 03:52:27;;;;;;;28.83;26.33;;;;;;;14.87;93.30;99717.97;5051023;28;20229;-77
2021/08/05 03:54:54;;;;;;;22.90;21.20;;;;;;;14.98;93.02;99732.38;5051632;28;20213;-77
2021/08/05 03:57:20;;;;;;;19.93;18.57;;;;;;;15.10;91.83;99763.31;5051778;28;20283;-77
2021/08/05 03:59:48;;;;;;;19.67;18.00;;;;;;;15.19;91.27;99778.63;5051915;28;20209;-77
2021/08/05 04:02:14;;;;;;;17.63;16.33;;;;;;;15.20;91.14;99784.75;5050760;28;20230;-76
2021/08/05 04:04:41;;;;;;;19.83;18.37;;;;;;;15.18;91.04;99797.13;5052537;28;20672;-77
2021/08/05 04:07:08;;;;;;;19.70;18.10;;;;;;;15.25;90.73;99812.53;5055407;28;20770;-77
2021/08/05 04:09:35;;;;;;;19.43;18.03;;;;;;;15.22;90.86;99810.06;5055350;28;20210;-77
2021/08/05 04:12:02;;;;;;;22.07;20.47;;;;;;;15.27;90.81;99796.69;5048734;28;20221;-77
2021/08/05 04:14:29;;;;;;;23.53;21.83;;;;;;;15.25;91.25;99791.47;5055580;28;20201;-77
2021/08/05 04:16:56;;;;;;;22.60;20.70;;;;;;;15.27;90.83;99780.91;5054985;28;20225;-77
2021/08/05 04:19:26;;;;;;;20.83;19.20;;;;;;;15.29;91.21;99782.50;5055433;28;20260;-77
2021/08/05 04:21:53;;;;;;;22.77;21.07;;;;;;;15.43;92.12;99749.44;5054602;28;20237;-77
2021/08/05 04:24:19;;;;;;;24.30;22.23;;;;;;;15.46;91.89;99749.25;5054800;28;20245;-77
2021/08/05 04:26:46;;;;;;;23.87;21.77;;;;;;;15.42;91.44;99769.63;5055294;28;20227;-77
2021/08/05 04:29:12;;;;;;;23.10;21.40;;;;;;;15.43;90.98;99789.72;5054784;28;20733;-77
2021/08/05 04:31:39;;;;;;;20.47;18.87;;;;;;;15.45;90.69;99806.28;5055108;28;20630;-77
2021/08/05 04:34:07;;;;;;;19.40;17.80;;;;;;;15.46;90.19;99823.78;5054125;28;20206;-77
2021/08/05 04:36:33;;;;;;;19.77;18.03;;;;;;;15.50;89.80;99845.53;5054951;28;20229;-77
2021/08/05 04:39:00;;;;;;;22.33;20.37;;;;;;;15.54;89.70;99836.56;5055042;28;20263;-77
2021/08/05 04:41:27;;;;;;;21.10;19.53;;;;;;;15.52;90.32;99821.75;5048763;28;20213;-77
2021/08/05 04:43:54;;;;;;;21.80;20.20;;;;;;;15.42;90.92;99795.94;5053557;28;20226;-77
2021/08/05 04:46:20;;;;;;;21.47;19.63;;;;;;;15.51;91.74;99770.09;5055070;28;20725;-77
2021/08/05 04:48:47;;;;;;;19.57;18.13;;;;;;;15.51;91.59;99770.94;5055613;28;20301;-77
2021/08/05 04:51:15;;;;;;;22.90;21.30;;;;;;;15.44;91.11;99788.81;5055612;28;20274;-77
2021/08/05 04:53:41;;;;;;;23.40;21.57;;;;;;;15.46;90.62;99797.47;5054278;28;20232;-76
2021/08/05 04:56:07;;;;;;;23.17;21.47;;;;;;;15.49;91.02;99793.84;5055324;28;20206;-77
2021/08/05 04:58:34;;;;;;;22.60;20.50;;;;;;;15.56;90.22;99807.53;5055338;28;20256;-78
2021/08/05 05:01:00;;;;;;;21.30;19.20;;;;;;;15.57;89.78;99831.13;5054854;28;20263;-77
2021/08/05 05:03:27;;;;;;;21.23;19.73;;;;;;;15.59;89.83;99818.75;5054346;28;20238;-76
2021/08/05 05:05:53;;;;;;;22.30;20.50;;;;;;;15.60;90.42;99807.31;5055082;28;20208;-76
2021/08/05 05:08:23;;;;;;;20.30;18.63;;;;;;;15.66;89.90;99820.16;5055116;28;20209;-76
2021/08/05 05:10:51;;;;;;;20.40;19.00;;;;;;;15.68;89.20;99839.34;5048396;28;20259;-77
2021/08/05 05:13:17;;;;;;;21.83;19.80;;;;;;;15.69;88.76;99850.72;5053157;28;20216;-79
2021/08/05 05:15:45;;;;;;;21.47;19.93;;;;;;;15.71;89.00;99840.97;5053521;28;20223;-77
2021/08/05 05:18:13;;;;;;;21.60;20.10;;;;;;;15.73;90.03;99817.25;5054186;28;20226;-76
2021/08/05 05:20:40;;;;;;;22.57;20.70;;;;;;;15.71;90.06;99811.19;5055121;28;20214;-80
2021/08/05 05:23:07;;;;;;;22.73;20.90;;;;;;;15.71;90.89;99785.72;5054668;28;20225;-76
2021/08/05 05:25:36;;;;;;;23.47;21.03;;;;;;;15.77;90.69;99788.06;5044612;28;20198;-76
2021/08/05 05:28:03;;;;;;;20.90;19.50;;;;;;;15.80;90.16;99803.72;5045693;28;20190;-76
2021/08/05 05:30:30;;;;;;;21.30;19.23;;;;;;;15.82;89.85;99814.16;5044343;28;20213;-76
2021/08/05 05:32:56;;;;;;;20.73;19.13;;;;;;;15.85;90.60;99799.03;5043277;28;20217;-76
2021/08/05 05:35:23;;;;;;;21.43;19.83;;;;;;;15.85;91.01;99780.63;5045404;28;20254;-76
2021/08/05 05:37:52;;;;;;;22.93;20.83;;;;;;;15.89;90.38;99797.13;5043954;28;20226;-76
2021/08/05 05:40:19;;;;;;;25.83;23.73;;;;;;;15.92;89.73;99817.19;5042685;28;20218;-76
2021/08/05 05:42:47;;;;;;;27.40;24.60;;;;;;;15.93;89.27;99835.50;5044939;28;20636;-76
2021/08/05 05:45:16;;;;;;;25.67;23.67;;;;;;;15.92;88.88;99844.34;5043542;28;20620;-76
2021/08/05 05:47:43;;;;;;;25.30;23.30;;;;;;;15.99;89.46;99837.81;5044589;28;20218;-76
2021/08/05 05:50:11;;;;;;;24.23;22.50;;;;;;;16.00;89.31;99829.00;5043852;28;20203;-76
2021/08/05 05:52:38;;;;;;;25.47;23.13;;;;;;;16.05;89.82;99816.47;5039193;28;20226;-76
2021/08/05 05:55:05;;;;;;;24.27;22.43;;;;;;;16.03;90.44;99794.63;5042863;28;20228;-77
2021/08/05 05:57:31;;;;;;;25.10;22.97;;;;;;;16.08;90.23;99802.28;5045566;28;20708;-76
2021/08/05 05:59:59;;;;;;;23.80;21.67;;;;;;;16.10;90.03;99802.22;5044605;28;20559;-77
2021/08/05 06:02:26;;;;;;;22.23;20.43;;;;;;;16.11;89.64;99825.81;5040346;28;20769;-76
2021/08/05 06:04:52;;;;;;;21.43;19.93;;;;;;;16.15;89.71;99821.25;5046145;28;20214;-78
2021/08/05 06:07:19;;;;;;;21.10;19.57;;;;;;;16.16;89.35;99839.59;5044346;28;20217;-76
2021/08/05 06:09:45;;;;;;;22.77;21.07;;;;;;;16.20;89.34;99842.94;5046735;28;20204;-78
2021/08/05 06:12:12;;;;;;;22.83;21.13;;;;;;;16.15;90.02;99813.34;5042414;28;20229;-77
2021/08/05 06:14:38;;;;;;;20.30;18.77;;;;;;;16.18;90.09;99808.78;5046030;28;20275;-78
2021/08/05 06:17:06;;;;;;;21.40;19.80;;;;;;;16.20;89.64;99832.41;5044099;28;20218;-77
2021/08/05 06:19:32;;;;;;;19.93;18.23;;;;;;;16.22;89.10;99848.97;5045536;28;20721;-77
2021/08/05 06:21:59;;;;;;;22.70;21.03;;;;;;;16.25;89.21;99857.56;5041801;28;20640;-78
2021/08/05 06:24:26;;;;;;;21.70;20.10;;;;;;;16.31;89.53;99845.84;5044707;28;20754;-78
2021/08/05 06:26:52;;;;;;;21.60;19.80;;;;;;;16.35;90.11;99831.59;5045442;28;20199;-78
2021/08/05 06:29:19;;;;;;;25.07;22.93;;;;;;;16.29;90.51;99813.47;5042889;28;20738;-78
2021/08/05 06:31:46;;;;;;;26.57;24.27;;;;;;;16.36;90.50;99808.75;5050093;28;20267;-77
2021/08/05 06:34:14;;;;;;;23.43;21.73;;;;;;;16.40;89.75;99834.00;5054450;28;20209;-78
2021/08/05 06:36:40;;;;;;;21.50;20.00;;;;;;;16.43;89.22;99857.53;5054170;28;20632;-78
2021/08/05 06:39:07;;;;;;;21.60;20.10;;;;;;;16.51;89.21;99860.63;5054898;28;20202;-78
2021/08/05 06:41:33;;;;;;;20.50;19.10;;;;;;;16.56;89.36;99855.09;5053967;28;20217;-78
2021/08/05 06:44:00;;;;;;;23.47;21.73;;;;;;;16.63;89.25;99861.72;5053289;28;20571;-78
2021/08/05 06:46:26;;;;;;;22.37;20.87;;;;;;;16.67;89.20;99858.03;5054539;28;20819;-78
2021/08/05 06:48:53;;;;;;;22.40;20.83;;;;;;;16.75;88.95;99869.00;5054149;28;20198;-77
2021/08/05 06:51:21;;;;;;;23.60;21.63;;;;;;;16.81;88.78;99876.63;5054472;28;20209;-77
2021/08/05 06:53:47;;;;;;;22.20;20.70;;;;;;;16.83;88.67;99874.75;5053419;28;20225;-78
2021/08/05 06:56:14;;;;;;;23.33;21.63;;;;;;;16.89;88.90;99870.94;5054510;28;20626;-77
2021/08/05 06:58:40;;;;;;;25.87;23.77;;;;;;;16.92;88.87;99859.34;5053567;28;20283;-77
2021/08/05 07:01:07;;;;;;;26.07;23.73;;;;;;;16.96;88.85;99866.16;5053809;28;20213;-78
2021/08/05 07:03:33;;;;;;;25.90;23.43;;;;;;;16.99;88.29;99872.13;5053516;28;20241;-78
2021/08/05 07:05:59;;;;;;;24.67;22.60;;;;;;;17.02;88.42;99881.66;5054588;28;20202;-77
2021/08/05 07:08:27;;;;;;;25.07;22.30;;;;;;;17.06;88.22;99875.25;5038891;28;20583;-77
2021/08/05 07:10:54;;;;;;;25.13;23.03;;;;;;;17.11;88.17;99888.22;5043470;28;20656;-77
2021/08/05 07:13:20;;;;;;;25.83;23.80;;;;;;;17.14;88.02;99888.88;5053323;28;20221;-78
2021/08/05 07:15:47;;;;;;;23.00;21.30;;;;;;;17.19;88.26;99891.28;5054470;28;20259;-77
2021/08/05 07:18:13;;;;;;;24.33;22.40;;;;;;;17.19;87.80;99899.19;5053786;28;20704;-77
2021/08/05 07:20:40;;;;;;;24.40;22.50;;;;;;;17.21;87.66;99913.16;5054388;28;20263;-77
2021/08/05 07:23:06;;;;;;;23.50;21.63;;;;;;;17.21;88.00;99903.44;5053241;28;20230;-78
2021/08/05 07:25:34;;;;;;;25.47;22.97;;;;;;;17.26;87.67;99919.88;5054806;28;20207;-78
2021/08/05 07:28:01;;;;;;;23.70;22.00;;;;;;;17.30;87.81;99920.53;5054408;28;20205;-78
2021/08/05 07:30:29;;;;;;;24.10;22.10;;;;;;;17.35;87.52;99929.06;5053026;28;20210;-77
2021/08/05 07:32:55;;;;;;;22.60;20.80;;;;;;;17.36;87.18;99935.19;5053705;28;20585;-78
2021/08/05 07:35:22;;;;;;;24.47;22.10;;;;;;;17.38;87.53;99928.03;5054221;28;20204;-77
2021/08/05 07:37:48;;;;;;;23.37;21.17;;;;;;;17.40;87.50;99929.66;5054070;28;20233;-78
2021/08/05 07:40:16;;;;;;;24.67;22.33;;;;;;;17.43;87.47;99923.38;5052165;28;20272;-78
2021/08/05 07:42:44;;;;;;;23.53;21.27;;;;;;;17.46;87.54;99924.06;5053792;28;20268;-77
2021/08/05 07:45:11;;;;;;;25.33;22.83;;;;;;;17.45;87.18;99932.03;5057418;28;20264;-78
2021/08/05 07:47:38;;;;;;;23.57;21.57;;;;;;;17.50;87.49;99918.59;5057842;28;20203;-78
2021/08/05 07:50:06;;;;;;;23.60;21.83;;;;;;;17.54;87.35;99918.34;5057400;28;20217;-78
2021/08/05 07:52:33;;;;;;;21.83;19.70;;;;;;;17.55;87.61;99912.13;5056306;28;20736;-77
2021/08/05 07:55:03;;;;;;;23.07;20.67;;;;;;;17.59;86.96;99926.84;5057293;28;20254;-77
2021/08/05 07:57:31;;;;;;;23.37;20.90;;;;;;;17.67;87.50;99921.97;5057241;28;20235;-78
2021/08/05 07:59:59;;;;;;;22.63;20.70;;;;;;;17.73;86.71;99933.97;5056954;28;20202;-78
2021/08/05 08:02:26;;;;;;;23.40;21.57;;;;;;;17.81;86.19;99950.22;5056737;28;20233;-78
2021/08/05 08:04:52;;;;;;;22.67;20.67;;;;;;;17.88;86.59;99953.41;5057361;28;20229;-78
2021/08/05 08:07:19;;;;;;;22.57;20.83;;;;;;;17.93;86.50;99956.63;5057221;28;20206;-79
2021/08/05 08:09:45;;;;;;;24.97;22.47;;;;;;;17.98;85.92;99966.94;5057149;28;20217;-80
2021/08/05 08:12:12;;;;;;;25.33;23.17;;;;;;;18.00;85.84;99978.28;5052622;28;20227;-79
2021/08/05 08:14:38;;;;;;;23.47;21.67;;;;;;;18.05;85.63;99982.31;5058240;28;20569;-78
2021/08/05 08:17:06;;;;;;;22.90;21.27;;;;;;;18.11;85.47;99985.56;5057971;28;20612;-78
2021/08/05 08:19:32;;;;;;;23.80;21.87;;;;;;;18.13;84.66;100018.03;5057709;28;20245;-78
2021/08/05 08:22:00;;;;;;;24.37;22.33;;;;;;;18.16;84.40;100024.00;5056497;28;20781;-78
2021/08/05 08:24:27;;;;;;;24.67;22.87;;;;;;;18.17;84.01;100035.41;5056937;28;20215;-78
2021/08/05 08:26:53;;;;;;;23.77;21.97;;;;;;;18.19;84.47;100021.16;5057702;28;20208;-78
2021/08/05 08:29:20;;;;;;;25.47;23.13;;;;;;;18.21;84.58;100008.72;5057357;28;20250;-82
2021/08/05 08:31:49;;;;;;;23.80;21.47;;;;;;;18.25;84.54;100017.31;5056919;28;20211;-83
2021/08/05 08:34:17;;;;;;;25.33;23.10;;;;;;;18.29;84.51;100016.19;5058789;28;20262;-83
2021/08/05 08:36:45;;;;;;;24.83;22.73;;;;;;;18.30;84.77;100004.72;5058668;28;20199;-79
2021/08/05 08:39:12;;;;;;;24.50;22.37;;;;;;;18.29;84.97;99994.22;5057568;28;20237;-80
2021/08/05 08:41:40;;;;;;;23.50;21.73;;;;;;;18.31;85.56;99977.31;5050635;28;20211;-80
2021/08/05 08:44:07;;;;;;;26.80;24.67;;;;;;;18.28;85.90;99969.59;5056481;28;20252;-79
2021/08/05 08:46:35;;;;;;;26.93;24.53;;;;;;;18.35;86.34;99951.59;5057498;28;20202;-79
2021/08/05 08:49:03;;;;;;;22.40;20.90;;;;;;;18.38;86.24;99952.25;5057707;28;20204;-81
2021/08/05 08:51:32;;;;;;;23.37;21.77;;;;;;;18.43;84.76;100005.69;5058682;28;20218;-77
2021/08/05 08:54:03;;;;;;;24.03;22.07;;;;;;;18.50;84.36;100024.69;5058248;28;20298;-76
2021/08/05 08:56:31;;;;;;;23.07;21.37;;;;;;;18.52;84.66;100001.66;5061221;28;20246;-79
2021/08/05 08:58:59;;;;;;;23.00;21.40;;;;;;;18.57;84.87;99990.81;5058635;28;20232;-79
2021/08/05 09:01:25;;;;;;;23.97;21.90;;;;;;;18.63;85.14;99983.38;5057691;28;20259;-80
2021/08/05 09:03:52;;;;;;;23.43;21.73;;;;;;;18.75;84.92;99973.84;5051742;28;20810;-79
2021/08/05 09:06:19;;;;;;;24.10;22.30;;;;;;;18.85;84.32;100005.91;5047622;28;20286;-80
2021/08/05 09:08:48;;;;;;;23.57;21.83;;;;;;;18.90;84.42;100006.47;5047743;28;20276;-79
2021/08/05 09:11:15;;;;;;;25.03;22.80;;;;;;;18.99;84.53;99998.00;5043799;28;20204;-78
2021/08/05 09:13:42;;;;;;;24.47;22.67;;;;;;;19.07;84.49;99999.28;5054876;28;20228;-79
2021/08/05 09:16:21;;;;;;;23.73;21.90;;;;;;;19.16;84.01;100019.91;5055806;28;20239;-79
2021/08/05 09:18:47;;;;;;;22.50;20.23;;;;;;;19.28;83.93;100020.94;5057376;28;20659;-78
2021/08/05 09:21:16;;;;;;;23.13;21.17;;;;;;;19.36;84.03;100022.16;5055504;28;20209;-76
2021/08/05 09:23:53;;;;;;;22.90;21.30;;;;;;;19.48;84.35;100012.59;5052321;28;20233;-78
2021/08/05 09:26:23;;;;;;;22.40;20.73;;;;;;;19.64;83.11;100039.84;5057153;28;20212;-78
2021/08/05 09:29:00;;;;;;;22.13;20.53;;;;;;;19.79;82.50;100066.31;5056459;28;20241;-79
2021/08/05 09:31:26;;;;;;;21.87;20.37;;;;;;;19.91;81.76;100085.88;5055469;28;20663;-80
2021/08/05 09:34:00;;;;;;;22.70;21.10;;;;;;;20.01;81.37;100103.72;5055733;28;20266;-79
2021/08/05 09:36:27;;;;;;;22.27;20.77;;;;;;;20.09;80.73;100110.34;5056641;28;20413;-79
2021/08/05 09:38:55;;;;;;;21.70;20.20;;;;;;;20.11;80.68;100127.84;5055739;28;20229;-79
2021/08/05 09:41:22;;;;;;;18.97;17.67;;;;;;;20.16;81.50;100098.44;5049634;28;20744;-78
2021/08/05 09:43:49;;;;;;;19.07;17.60;;;;;;;20.31;80.91;100109.81;5054820;28;20225;-80
2021/08/05 09:46:29;;;;;;;18.80;17.50;;;;;;;20.49;79.58;100139.59;5055946;28;20682;-79
2021/08/05 09:48:56;;;;;;;18.03;16.83;;;;;;;20.66;78.60;100181.81;5055850;28;20189;-80
2021/08/05 09:51:22;;;;;;;17.83;16.47;;;;;;;20.80;78.49;100191.53;5055826;28;20221;-80
2021/08/05 09:54:04;;;;;;;17.40;16.33;;;;;;;20.89;79.22;100164.38;5053391;28;20229;-79
2021/08/05 09:56:33;;;;;;;15.87;14.77;;;;;;;20.95;79.50;100141.88;5055406;28;20227;-77
2021/08/05 09:59:11;;;;;;;15.30;14.30;;;;;;;21.10;77.68;100191.28;5056196;28;20258;-79
2021/08/05 10:01:56;;;;;;;14.07;12.97;;;;;;;21.07;75.32;100302.09;5056709;28;20303;-79
2021/08/05 10:04:27;;;;;;;13.10;12.20;;;;;;;21.16;76.91;100229.84;5056387;28;20232;-79
2021/08/05 10:06:59;;;;;;;12.40;11.30;;;;;;;21.07;71.37;100435.69;5056158;28;20586;-78
2021/08/05 10:09:28;;;;;;;13.77;12.87;;;;;;;21.23;73.66;100343.50;5044083;28;20219;-78
2021/08/05 10:12:19;;;;;;;13.83;12.83;;;;;;;21.30;73.56;100330.66;5045927;28;20223;-77
2021/08/05 10:14:47;;;;;;;12.87;12.07;;;;;;;21.28;73.17;100361.75;5055101;28;20253;-77
2021/08/05 10:17:16;;;;;;;13.40;12.40;;;;;;;21.34;72.57;100364.03;5055295;28;20239;-79
2021/08/05 10:19:45;;;;;;;11.47;10.77;;;;;;;21.37;72.70;100377.09;5057032;28;20247;-78
2021/08/05 10:22:13;;;;;;;11.43;10.67;;;;;;;21.53;72.39;100365.53;5056271;28;20228;-78
2021/08/05 10:24:44;;;;;;;11.27;10.47;;;;;;;21.62;72.44;100372.88;5057642;28;20213;-78
2021/08/05 10:27:12;;;;;;;12.30;11.60;;;;;;;21.76;70.01;100444.56;5057543;28;20197;-78
2021/08/05 10:29:40;;;;;;;12.17;11.43;;;;;;;21.84;69.93;100459.97;5056491;28;20201;-79
2021/08/05 10:32:09;;;;;;;12.23;11.43;;;;;;;21.89;71.06;100393.25;5054454;28;20440;-78
2021/08/05 10:34:38;;;;;;;11.77;10.97;;;;;;;21.68;66.97;100570.88;5053053;28;20213;-76
2021/08/05 10:37:06;;;;;;;11.83;10.90;;;;;;;21.78;69.53;100465.69;5052157;28;20208;-76
2021/08/05 10:39:35;;;;;;;10.27;9.40;;;;;;;21.91;70.67;100418.75;5051740;28;20569;-76
2021/08/05 10:42:07;;;;;;;9.90;9.30;;;;;;;22.07;71.37;100378.72;5043934;28;20327;-76
2021/08/05 10:44:35;;;;;;;9.87;9.17;;;;;;;22.13;73.39;100279.06;5051532;28;20212;-76
2021/08/05 10:47:02;;;;;;;10.20;9.40;;;;;;;22.23;70.33;100422.88;5052104;28;20297;-76
2021/08/05 10:49:29;;;;;;;10.10;9.50;;;;;;;22.26;72.49;100330.47;5051547;28;20827;-76
2021/08/05 10:51:55;;;;;;;9.00;8.40;;;;;;;22.31;68.01;100490.56;5051110;28;20237;-76
2021/08/05 10:54:50;;;;;;;9.23;8.57;;;;;;;22.12;65.51;100615.88;5051836;28;20208;-76
2021/08/05 10:57:20;;;;;;;9.00;8.30;;;;;;;22.30;70.96;100401.13;5051881;28;20218;-76
2021/08/05 11:00:03;;;;;;;9.13;8.63;;;;;;;22.38;73.43;100280.91;5051305;28;20230;-76
2021/08/05 11:02:49;;;;;;;8.63;8.17;;;;;;;22.40;71.98;100303.75;5049886;28;20228;-77
2021/08/05 11:05:43;;;;;;;7.60;7.20;;;;;;;22.56;69.50;100452.50;5052391;28;20288;-76
2021/08/05 11:08:26;;;;;;;8.03;7.63;;;;;;;22.76;65.50;100572.69;5051600;28;20580;-76
2021/08/05 11:11:26;;;;;;;7.13;6.73;;;;;;;22.82;65.42;100579.44;5051469;28;20245;-76
2021/08/05 11:14:27;;;;;;;8.13;7.57;;;;;;;22.83;65.09;100573.97;5049366;28;20267;-76
2021/08/05 11:17:05;;;;;;;6.03;5.73;;;;;;;22.95;64.60;100593.56;5051962;28;20236;-77
2021/08/05 11:19:33;;;;;;;7.93;7.53;;;;;;;23.21;63.39;100639.78;5051690;28;20232;-76
2021/08/05 11:22:52;;;;;;;7.30;6.80;;;;;;;23.29;60.80;100746.66;5050883;28;20229;-76